Airfield :
LOGIN :

Register | Disclaimer

   EN    FR    IT 

 










Legend :    VFR   Marginal VFR   IFR   Intensive IFR   Very Intensive IFR
Visi :
Ceiling :
>= 8 km
>= 3000ft
5 to 8 km
1000 to 3000 ft
1500m to 5 km
500 to 1000 ft
800 to 1500m
200 to 500 ft
< 800m
< 200 ft
Symbols :   Thunderstorms  Fog  Heavy snow  Heavy precipitations  Wind > 20 kt
SIGMETs :     Misc.  Thunderstorms  Icing  Turbulence  Mountain Waves  Volcanic Ashes







- Airport Elevation : 1487 ft
- IATA code : MUC


EDDM - München Franz Josef Strauss

CURRENT METAR :
  • 191250Z 04006KT 350V070 9000 NSC 17/10 Q1022 NOSIG

EXPIRED METARs :
  • 191220Z VRB05KT 9000 NSC 17/10 Q1022 NOSIG
  • 191150Z 04006KT 360V090 8000 NSC 16/10 Q1022 NOSIG
  • 191120Z 08004KT 030V150 7000 NSC 16/10 Q1022 NOSIG
  • 191050Z 08004KT 020V150 6000 NSC 14/10 Q1023 NOSIG
  • 191020Z 10005KT 060V130 5000 BR NSC 13/10 Q1023 NOSIG

TAF TAF EDDM
Valid from the 19 at 12:00 until the 20 at 18:00 UTC


191100Z 1912/2018 08005KT 7000 FEW030
BECMG 1915/1917 VRB03KT
BECMG 1921/1924 2500 BCFG
TEMPO 2002/2008 0600 FG BKN001
BECMG 2008/2011 6000
TEMPO 2010/2016 36005KT
No reported NOTAMs for that airfield.



MET'MAP, your aeronautical weather chart ! - Copyright ORBIFLY December 2007 - Disclaimer

ORBIFLY MET'MAP TEAM :

Programming & Development : Alexandra Zaïnal
Concept & Development : Baudouin d'Aumeries
Co-Development & Prog : Marc-Olivier Méhu
Technical & hardware support : Manuel Goepfert

Contact : metmap@orbifly.com




SOURCES & CREDITS :

   NOAA